sensor_id;sensor_type;location;lat;lon;timestamp;temperature;humidity
25250;DHT22;13201;51.148;13.738;2023-07-31T00:00:49;16.30;99.90
25250;DHT22;13201;51.148;13.738;2023-07-31T00:03:14;16.20;99.90
25250;DHT22;13201;51.148;13.738;2023-07-31T00:05:40;16.20;99.90
25250;DHT22;13201;51.148;13.738;2023-07-31T00:08:06;16.20;99.90
25250;DHT22;13201;51.148;13.738;2023-07-31T00:10:31;16.20;99.90
25250;DHT22;13201;51.148;13.738;2023-07-31T00:12:57;16.20;99.90
25250;DHT22;13201;51.148;13.738;2023-07-31T00:15:23;16.20;99.90
25250;DHT22;13201;51.148;13.738;2023-07-31T00:17:48;16.10;99.90
25250;DHT22;13201;51.148;13.738;2023-07-31T00:20:14;16.20;99.90
25250;DHT22;13201;51.148;13.738;2023-07-31T00:22:39;16.20;99.90
25250;DHT22;13201;51.148;13.738;2023-07-31T00:25:05;16.20;99.90
25250;DHT22;13201;51.148;13.738;2023-07-31T00:27:32;16.20;99.90
25250;DHT22;13201;51.148;13.738;2023-07-31T00:29:58;16.20;99.90
25250;DHT22;13201;51.148;13.738;2023-07-31T00:32:23;16.20;99.90
25250;DHT22;13201;51.148;13.738;2023-07-31T00:34:49;16.20;99.90
25250;DHT22;13201;51.148;13.738;2023-07-31T00:37:15;16.10;99.90
25250;DHT22;13201;51.148;13.738;2023-07-31T00:39:41;16.10;99.90
25250;DHT22;13201;51.148;13.738;2023-07-31T00:42:06;16.10;99.90
25250;DHT22;13201;51.148;13.738;2023-07-31T00:44:32;16.10;99.90
25250;DHT22;13201;51.148;13.738;2023-07-31T00:46:58;16.20;99.90
25250;DHT22;13201;51.148;13.738;2023-07-31T00:49:25;16.20;99.90
25250;DHT22;13201;51.148;13.738;2023-07-31T00:51:51;16.10;99.90
25250;DHT22;13201;51.148;13.738;2023-07-31T00:54:17;16.10;99.90
25250;DHT22;13201;51.148;13.738;2023-07-31T00:56:46;16.20;99.90
25250;DHT22;13201;51.148;13.738;2023-07-31T00:59:13;16.10;99.90
25250;DHT22;13201;51.148;13.738;2023-07-31T01:01:40;16.10;99.90
25250;DHT22;13201;51.148;13.738;2023-07-31T01:32:12;15.20;99.90
25250;DHT22;13201;51.148;13.738;2023-07-31T01:34:39;15.20;99.90
25250;DHT22;13201;51.148;13.738;2023-07-31T01:37:05;15.30;99.90
25250;DHT22;13201;51.148;13.738;2023-07-31T01:39:31;15.50;99.90
25250;DHT22;13201;51.148;13.738;2023-07-31T01:41:56;15.60;99.90
25250;DHT22;13201;51.148;13.738;2023-07-31T01:44:22;15.70;99.90
25250;DHT22;13201;51.148;13.738;2023-07-31T01:46:48;15.80;99.90
25250;DHT22;13201;51.148;13.738;2023-07-31T01:49:13;16.00;99.90
25250;DHT22;13201;51.148;13.738;2023-07-31T01:51:39;16.00;99.90
25250;DHT22;13201;51.148;13.738;2023-07-31T01:54:05;16.20;99.90
25250;DHT22;13201;51.148;13.738;2023-07-31T01:56:31;16.20;99.90
25250;DHT22;13201;51.148;13.738;2023-07-31T01:58:56;16.30;99.90
25250;DHT22;13201;51.148;13.738;2023-07-31T02:01:22;16.40;99.90
25250;DHT22;13201;51.148;13.738;2023-07-31T02:03:48;16.40;99.90
25250;DHT22;13201;51.148;13.738;2023-07-31T02:06:13;16.40;99.90
25250;DHT22;13201;51.148;13.738;2023-07-31T02:08:39;16.50;99.90
25250;DHT22;13201;51.148;13.738;2023-07-31T02:11:04;16.50;99.90
25250;DHT22;13201;51.148;13.738;2023-07-31T02:13:30;16.50;99.90
25250;DHT22;13201;51.148;13.738;2023-07-31T02:15:56;16.60;99.90
25250;DHT22;13201;51.148;13.738;2023-07-31T02:18:22;16.70;99.90
25250;DHT22;13201;51.148;13.738;2023-07-31T02:20:51;16.70;99.90
25250;DHT22;13201;51.148;13.738;2023-07-31T02:23:18;16.80;99.90
25250;DHT22;13201;51.148;13.738;2023-07-31T02:25:44;16.90;99.90
25250;DHT22;13201;51.148;13.738;2023-07-31T02:28:10;16.90;99.90
25250;DHT22;13201;51.148;13.738;2023-07-31T02:30:36;16.90;99.90
25250;DHT22;13201;51.148;13.738;2023-07-31T02:33:02;16.90;99.90
25250;DHT22;13201;51.148;13.738;2023-07-31T02:35:27;17.00;99.90
25250;DHT22;13201;51.148;13.738;2023-07-31T02:37:53;16.90;99.90
25250;DHT22;13201;51.148;13.738;2023-07-31T02:40:19;16.90;99.90
25250;DHT22;13201;51.148;13.738;2023-07-31T02:42:44;17.00;99.90
25250;DHT22;13201;51.148;13.738;2023-07-31T02:45:10;16.90;99.90
25250;DHT22;13201;51.148;13.738;2023-07-31T02:47:36;16.90;99.90
25250;DHT22;13201;51.148;13.738;2023-07-31T02:50:04;17.00;99.90
25250;DHT22;13201;51.148;13.738;2023-07-31T02:52:30;17.10;99.90
25250;DHT22;13201;51.148;13.738;2023-07-31T02:54:57;17.10;99.90
25250;DHT22;13201;51.148;13.738;2023-07-31T02:57:23;17.20;99.90
25250;DHT22;13201;51.148;13.738;2023-07-31T02:59:49;17.20;99.90
25250;DHT22;13201;51.148;13.738;2023-07-31T03:02:14;17.30;99.90
25250;DHT22;13201;51.148;13.738;2023-07-31T03:04:40;17.40;99.90
25250;DHT22;13201;51.148;13.738;2023-07-31T03:07:06;17.30;99.90
25250;DHT22;13201;51.148;13.738;2023-07-31T03:09:31;17.40;99.90
25250;DHT22;13201;51.148;13.738;2023-07-31T03:11:57;17.30;99.90
25250;DHT22;13201;51.148;13.738;2023-07-31T03:14:23;17.40;99.90
25250;DHT22;13201;51.148;13.738;2023-07-31T03:16:49;17.30;99.90
25250;DHT22;13201;51.148;13.738;2023-07-31T03:19:14;17.40;99.90
25250;DHT22;13201;51.148;13.738;2023-07-31T03:21:41;17.40;99.90
25250;DHT22;13201;51.148;13.738;2023-07-31T03:24:06;17.20;99.90
25250;DHT22;13201;51.148;13.738;2023-07-31T03:26:32;17.20;99.90
25250;DHT22;13201;51.148;13.738;2023-07-31T03:28:58;17.20;99.90
25250;DHT22;13201;51.148;13.738;2023-07-31T03:31:24;17.10;99.90
25250;DHT22;13201;51.148;13.738;2023-07-31T03:33:49;17.00;99.90
25250;DHT22;13201;51.148;13.738;2023-07-31T03:36:15;17.00;99.90
25250;DHT22;13201;51.148;13.738;2023-07-31T03:38:41;16.90;99.90
25250;DHT22;13201;51.148;13.738;2023-07-31T03:41:06;16.90;99.90
25250;DHT22;13201;51.148;13.738;2023-07-31T03:43:32;16.90;99.90
25250;DHT22;13201;51.148;13.738;2023-07-31T03:46:01;16.80;99.90
25250;DHT22;13201;51.148;13.738;2023-07-31T03:48:28;16.90;99.90
25250;DHT22;13201;51.148;13.738;2023-07-31T03:50:53;16.90;99.90
25250;DHT22;13201;51.148;13.738;2023-07-31T03:53:19;16.60;99.90
25250;DHT22;13201;51.148;13.738;2023-07-31T03:55:45;16.60;99.90
25250;DHT22;13201;51.148;13.738;2023-07-31T03:58:10;16.70;99.90
25250;DHT22;13201;51.148;13.738;2023-07-31T04:00:36;16.70;99.90
25250;DHT22;13201;51.148;13.738;2023-07-31T04:03:02;16.70;99.90
25250;DHT22;13201;51.148;13.738;2023-07-31T04:05:30;16.50;99.90
25250;DHT22;13201;51.148;13.738;2023-07-31T04:07:55;16.50;99.90
25250;DHT22;13201;51.148;13.738;2023-07-31T04:10:21;16.50;99.90
25250;DHT22;13201;51.148;13.738;2023-07-31T04:12:47;16.60;99.90
25250;DHT22;13201;51.148;13.738;2023-07-31T04:15:12;16.60;99.90
25250;DHT22;13201;51.148;13.738;2023-07-31T04:17:38;16.50;99.90
25250;DHT22;13201;51.148;13.738;2023-07-31T04:20:04;16.60;99.90
25250;DHT22;13201;51.148;13.738;2023-07-31T04:22:30;16.50;99.90
25250;DHT22;13201;51.148;13.738;2023-07-31T04:24:56;16.50;99.90
25250;DHT22;13201;51.148;13.738;2023-07-31T04:27:22;16.50;99.90
25250;DHT22;13201;51.148;13.738;2023-07-31T04:29:47;16.60;99.90
25250;DHT22;13201;51.148;13.738;2023-07-31T04:32:13;16.40;99.90
25250;DHT22;13201;51.148;13.738;2023-07-31T04:34:42;16.50;99.90
25250;DHT22;13201;51.148;13.738;2023-07-31T04:37:07;16.50;99.90
25250;DHT22;13201;51.148;13.738;2023-07-31T04:39:33;16.50;99.90
25250;DHT22;13201;51.148;13.738;2023-07-31T04:41:59;16.50;99.90
25250;DHT22;13201;51.148;13.738;2023-07-31T04:44:24;16.60;99.90
25250;DHT22;13201;51.148;13.738;2023-07-31T04:46:50;16.60;99.90
25250;DHT22;13201;51.148;13.738;2023-07-31T04:49:16;16.70;99.90
25250;DHT22;13201;51.148;13.738;2023-07-31T04:51:42;16.70;99.90
25250;DHT22;13201;51.148;13.738;2023-07-31T04:54:07;16.70;99.90
25250;DHT22;13201;51.148;13.738;2023-07-31T04:56:33;16.70;99.90
25250;DHT22;13201;51.148;13.738;2023-07-31T04:58:58;16.60;99.90
25250;DHT22;13201;51.148;13.738;2023-07-31T05:01:25;16.70;99.90
25250;DHT22;13201;51.148;13.738;2023-07-31T05:03:51;16.60;99.90
25250;DHT22;13201;51.148;13.738;2023-07-31T05:06:16;16.80;99.90
25250;DHT22;13201;51.148;13.738;2023-07-31T05:08:42;16.70;99.90
25250;DHT22;13201;51.148;13.738;2023-07-31T05:11:08;16.70;99.90
25250;DHT22;13201;51.148;13.738;2023-07-31T05:13:34;16.70;99.90
25250;DHT22;13201;51.148;13.738;2023-07-31T05:15:59;16.70;99.90
25250;DHT22;13201;51.148;13.738;2023-07-31T05:18:25;16.80;99.90
25250;DHT22;13201;51.148;13.738;2023-07-31T05:20:50;16.80;99.90
25250;DHT22;13201;51.148;13.738;2023-07-31T05:23:16;16.80;99.90
25250;DHT22;13201;51.148;13.738;2023-07-31T05:25:42;16.90;99.90
25250;DHT22;13201;51.148;13.738;2023-07-31T05:28:07;16.80;99.90
25250;DHT22;13201;51.148;13.738;2023-07-31T05:30:33;16.90;99.90
25250;DHT22;13201;51.148;13.738;2023-07-31T05:32:59;16.90;99.90
25250;DHT22;13201;51.148;13.738;2023-07-31T05:35:24;16.90;99.90
25250;DHT22;13201;51.148;13.738;2023-07-31T05:37:50;16.90;99.90
25250;DHT22;13201;51.148;13.738;2023-07-31T05:40:16;17.00;99.90
25250;DHT22;13201;51.148;13.738;2023-07-31T05:42:41;17.00;99.90
25250;DHT22;13201;51.148;13.738;2023-07-31T05:45:07;17.00;99.90
25250;DHT22;13201;51.148;13.738;2023-07-31T05:47:33;17.00;99.90
25250;DHT22;13201;51.148;13.738;2023-07-31T05:49:59;17.10;99.90
25250;DHT22;13201;51.148;13.738;2023-07-31T05:52:25;17.10;99.90
25250;DHT22;13201;51.148;13.738;2023-07-31T05:54:50;17.10;99.90
25250;DHT22;13201;51.148;13.738;2023-07-31T05:57:17;17.20;99.90
25250;DHT22;13201;51.148;13.738;2023-07-31T05:59:42;17.30;99.90
25250;DHT22;13201;51.148;13.738;2023-07-31T06:02:08;17.20;99.90
25250;DHT22;13201;51.148;13.738;2023-07-31T06:04:34;17.10;99.90
25250;DHT22;13201;51.148;13.738;2023-07-31T06:07:00;17.10;99.90
25250;DHT22;13201;51.148;13.738;2023-07-31T06:09:26;17.10;99.90
25250;DHT22;13201;51.148;13.738;2023-07-31T06:11:51;17.10;99.90
25250;DHT22;13201;51.148;13.738;2023-07-31T06:14:17;17.20;99.90
25250;DHT22;13201;51.148;13.738;2023-07-31T06:16:44;17.20;99.90
25250;DHT22;13201;51.148;13.738;2023-07-31T06:19:10;17.10;99.90
25250;DHT22;13201;51.148;13.738;2023-07-31T06:21:36;17.10;99.90
25250;DHT22;13201;51.148;13.738;2023-07-31T06:24:05;17.10;99.90
25250;DHT22;13201;51.148;13.738;2023-07-31T06:26:31;17.10;99.90
25250;DHT22;13201;51.148;13.738;2023-07-31T06:28:57;17.30;99.90
25250;DHT22;13201;51.148;13.738;2023-07-31T06:31:22;17.40;99.90
25250;DHT22;13201;51.148;13.738;2023-07-31T06:33:49;17.30;99.90
25250;DHT22;13201;51.148;13.738;2023-07-31T06:36:15;17.40;99.90
25250;DHT22;13201;51.148;13.738;2023-07-31T06:38:41;17.30;99.90
25250;DHT22;13201;51.148;13.738;2023-07-31T06:41:06;17.30;99.90
25250;DHT22;13201;51.148;13.738;2023-07-31T06:43:32;17.20;99.90
25250;DHT22;13201;51.148;13.738;2023-07-31T06:45:59;17.30;99.90
25250;DHT22;13201;51.148;13.738;2023-07-31T06:48:25;17.30;99.90
25250;DHT22;13201;51.148;13.738;2023-07-31T06:50:50;17.30;99.90
25250;DHT22;13201;51.148;13.738;2023-07-31T06:53:16;17.20;99.90
25250;DHT22;13201;51.148;13.738;2023-07-31T06:55:42;17.30;99.90
25250;DHT22;13201;51.148;13.738;2023-07-31T06:58:07;17.40;99.90
25250;DHT22;13201;51.148;13.738;2023-07-31T07:00:33;17.30;99.90
25250;DHT22;13201;51.148;13.738;2023-07-31T07:02:59;17.50;99.90
25250;DHT22;13201;51.148;13.738;2023-07-31T07:05:24;17.50;99.90
25250;DHT22;13201;51.148;13.738;2023-07-31T07:07:50;17.60;99.90
25250;DHT22;13201;51.148;13.738;2023-07-31T07:10:17;17.60;99.90
25250;DHT22;13201;51.148;13.738;2023-07-31T07:12:43;17.70;99.90
25250;DHT22;13201;51.148;13.738;2023-07-31T07:15:09;17.80;99.90
25250;DHT22;13201;51.148;13.738;2023-07-31T07:17:35;17.80;99.90
25250;DHT22;13201;51.148;13.738;2023-07-31T07:20:01;17.80;99.90
25250;DHT22;13201;51.148;13.738;2023-07-31T07:22:27;18.00;99.90
25250;DHT22;13201;51.148;13.738;2023-07-31T07:24:53;18.10;99.90
25250;DHT22;13201;51.148;13.738;2023-07-31T07:27:19;18.10;99.90
25250;DHT22;13201;51.148;13.738;2023-07-31T07:29:46;18.10;99.90
25250;DHT22;13201;51.148;13.738;2023-07-31T07:32:11;18.10;99.90
25250;DHT22;13201;51.148;13.738;2023-07-31T07:34:37;18.30;99.90
25250;DHT22;13201;51.148;13.738;2023-07-31T07:37:03;18.30;99.90
25250;DHT22;13201;51.148;13.738;2023-07-31T07:39:29;18.50;99.90
25250;DHT22;13201;51.148;13.738;2023-07-31T07:41:55;18.60;99.90
25250;DHT22;13201;51.148;13.738;2023-07-31T07:44:20;18.60;99.90
25250;DHT22;13201;51.148;13.738;2023-07-31T07:46:46;18.80;99.90
25250;DHT22;13201;51.148;13.738;2023-07-31T07:49:11;18.80;99.90
25250;DHT22;13201;51.148;13.738;2023-07-31T07:51:37;18.70;99.90
25250;DHT22;13201;51.148;13.738;2023-07-31T07:54:03;18.70;99.90
25250;DHT22;13201;51.148;13.738;2023-07-31T07:56:29;18.60;99.90
25250;DHT22;13201;51.148;13.738;2023-07-31T07:58:55;18.60;99.90
25250;DHT22;13201;51.148;13.738;2023-07-31T08:01:21;18.60;99.90
25250;DHT22;13201;51.148;13.738;2023-07-31T08:03:47;18.70;99.90
25250;DHT22;13201;51.148;13.738;2023-07-31T08:06:13;18.70;99.90
25250;DHT22;13201;51.148;13.738;2023-07-31T08:08:39;18.70;99.90
25250;DHT22;13201;51.148;13.738;2023-07-31T08:11:05;18.80;99.90
25250;DHT22;13201;51.148;13.738;2023-07-31T08:13:31;18.80;99.90
25250;DHT22;13201;51.148;13.738;2023-07-31T08:15:57;18.80;99.90
25250;DHT22;13201;51.148;13.738;2023-07-31T08:18:22;18.70;99.90
25250;DHT22;13201;51.148;13.738;2023-07-31T08:20:48;18.90;99.90
25250;DHT22;13201;51.148;13.738;2023-07-31T08:23:14;18.90;99.90
25250;DHT22;13201;51.148;13.738;2023-07-31T08:25:40;19.10;99.90
25250;DHT22;13201;51.148;13.738;2023-07-31T08:28:06;19.00;99.90
25250;DHT22;13201;51.148;13.738;2023-07-31T08:30:32;19.00;99.90
25250;DHT22;13201;51.148;13.738;2023-07-31T08:32:59;19.00;99.90
25250;DHT22;13201;51.148;13.738;2023-07-31T08:35:25;19.00;99.90
25250;DHT22;13201;51.148;13.738;2023-07-31T08:37:51;19.00;99.90
25250;DHT22;13201;51.148;13.738;2023-07-31T08:40:17;19.10;99.90
25250;DHT22;13201;51.148;13.738;2023-07-31T08:42:44;19.10;99.90
25250;DHT22;13201;51.148;13.738;2023-07-31T08:45:14;19.00;99.90
25250;DHT22;13201;51.148;13.738;2023-07-31T08:47:44;19.10;99.90
25250;DHT22;13201;51.148;13.738;2023-07-31T08:50:12;19.00;99.90
25250;DHT22;13201;51.148;13.738;2023-07-31T08:52:38;19.10;99.90
25250;DHT22;13201;51.148;13.738;2023-07-31T08:55:05;19.20;99.90
25250;DHT22;13201;51.148;13.738;2023-07-31T08:57:31;19.30;99.90
25250;DHT22;13201;51.148;13.738;2023-07-31T08:59:57;19.20;99.90
25250;DHT22;13201;51.148;13.738;2023-07-31T09:02:28;19.20;99.90
25250;DHT22;13201;51.148;13.738;2023-07-31T09:04:57;19.20;99.90
25250;DHT22;13201;51.148;13.738;2023-07-31T09:07:24;19.20;99.90
25250;DHT22;13201;51.148;13.738;2023-07-31T09:09:49;19.20;99.90
25250;DHT22;13201;51.148;13.738;2023-07-31T09:12:15;19.10;99.90
25250;DHT22;13201;51.148;13.738;2023-07-31T09:14:42;19.20;99.90
25250;DHT22;13201;51.148;13.738;2023-07-31T09:17:10;19.20;99.90
25250;DHT22;13201;51.148;13.738;2023-07-31T09:19:36;19.20;99.90
25250;DHT22;13201;51.148;13.738;2023-07-31T09:22:06;19.30;99.90
25250;DHT22;13201;51.148;13.738;2023-07-31T09:24:33;19.30;99.90
25250;DHT22;13201;51.148;13.738;2023-07-31T09:27:00;19.30;99.90
25250;DHT22;13201;51.148;13.738;2023-07-31T09:29:27;19.40;99.90
25250;DHT22;13201;51.148;13.738;2023-07-31T09:31:54;19.40;99.90
25250;DHT22;13201;51.148;13.738;2023-07-31T09:34:20;19.30;99.90
25250;DHT22;13201;51.148;13.738;2023-07-31T09:36:53;19.40;99.90
25250;DHT22;13201;51.148;13.738;2023-07-31T09:39:19;19.40;99.90
25250;DHT22;13201;51.148;13.738;2023-07-31T09:41:54;19.50;99.90
25250;DHT22;13201;51.148;13.738;2023-07-31T09:44:20;19.50;99.90
25250;DHT22;13201;51.148;13.738;2023-07-31T09:46:46;19.50;99.90
25250;DHT22;13201;51.148;13.738;2023-07-31T09:49:14;19.40;99.90
25250;DHT22;13201;51.148;13.738;2023-07-31T09:51:41;19.40;99.90
25250;DHT22;13201;51.148;13.738;2023-07-31T09:54:11;19.50;99.90
25250;DHT22;13201;51.148;13.738;2023-07-31T09:56:56;19.60;99.90
25250;DHT22;13201;51.148;13.738;2023-07-31T09:59:25;19.60;99.90
25250;DHT22;13201;51.148;13.738;2023-07-31T10:01:52;19.70;99.90
25250;DHT22;13201;51.148;13.738;2023-07-31T10:04:18;19.70;99.90
25250;DHT22;13201;51.148;13.738;2023-07-31T10:06:52;19.80;99.90
25250;DHT22;13201;51.148;13.738;2023-07-31T10:09:20;19.90;99.90
25250;DHT22;13201;51.148;13.738;2023-07-31T10:11:50;19.80;99.90
25250;DHT22;13201;51.148;13.738;2023-07-31T10:14:20;19.80;99.90
25250;DHT22;13201;51.148;13.738;2023-07-31T10:16:46;19.70;99.90
25250;DHT22;13201;51.148;13.738;2023-07-31T10:19:12;19.80;99.90
25250;DHT22;13201;51.148;13.738;2023-07-31T10:21:38;19.90;99.90
25250;DHT22;13201;51.148;13.738;2023-07-31T10:24:04;19.90;99.90
25250;DHT22;13201;51.148;13.738;2023-07-31T10:26:31;20.00;99.90
25250;DHT22;13201;51.148;13.738;2023-07-31T10:28:59;20.00;99.90
25250;DHT22;13201;51.148;13.738;2023-07-31T10:31:29;20.10;99.90
25250;DHT22;13201;51.148;13.738;2023-07-31T10:33:57;20.20;99.90
25250;DHT22;13201;51.148;13.738;2023-07-31T10:36:24;20.30;99.90
25250;DHT22;13201;51.148;13.738;2023-07-31T10:38:50;20.40;99.90
25250;DHT22;13201;51.148;13.738;2023-07-31T10:41:16;20.60;99.90
25250;DHT22;13201;51.148;13.738;2023-07-31T10:43:42;20.60;99.90
25250;DHT22;13201;51.148;13.738;2023-07-31T10:46:14;20.50;99.90
25250;DHT22;13201;51.148;13.738;2023-07-31T10:48:41;20.40;99.90
25250;DHT22;13201;51.148;13.738;2023-07-31T10:51:11;20.50;99.90
25250;DHT22;13201;51.148;13.738;2023-07-31T10:53:41;20.60;99.90
25250;DHT22;13201;51.148;13.738;2023-07-31T10:56:08;20.60;99.90
25250;DHT22;13201;51.148;13.738;2023-07-31T10:58:36;20.70;99.90
25250;DHT22;13201;51.148;13.738;2023-07-31T11:01:04;20.70;99.90
25250;DHT22;13201;51.148;13.738;2023-07-31T11:03:45;20.80;99.90
25250;DHT22;13201;51.148;13.738;2023-07-31T11:06:12;20.70;99.90
25250;DHT22;13201;51.148;13.738;2023-07-31T11:08:43;20.70;99.90
25250;DHT22;13201;51.148;13.738;2023-07-31T11:11:14;20.40;99.90
25250;DHT22;13201;51.148;13.738;2023-07-31T11:13:53;20.60;99.90
25250;DHT22;13201;51.148;13.738;2023-07-31T11:16:22;20.70;99.90
25250;DHT22;13201;51.148;13.738;2023-07-31T11:18:49;20.70;99.90
25250;DHT22;13201;51.148;13.738;2023-07-31T11:21:18;20.70;99.90
25250;DHT22;13201;51.148;13.738;2023-07-31T11:23:48;20.80;99.90
25250;DHT22;13201;51.148;13.738;2023-07-31T11:26:14;20.60;99.90
25250;DHT22;13201;51.148;13.738;2023-07-31T11:28:40;20.30;99.90
25250;DHT22;13201;51.148;13.738;2023-07-31T11:31:10;20.30;99.90
25250;DHT22;13201;51.148;13.738;2023-07-31T11:33:36;20.30;99.90
25250;DHT22;13201;51.148;13.738;2023-07-31T11:36:02;20.30;99.90
25250;DHT22;13201;51.148;13.738;2023-07-31T11:38:32;20.40;99.90
25250;DHT22;13201;51.148;13.738;2023-07-31T11:41:03;20.30;99.90
25250;DHT22;13201;51.148;13.738;2023-07-31T11:43:29;20.50;99.90
25250;DHT22;13201;51.148;13.738;2023-07-31T11:45:57;20.50;99.90
25250;DHT22;13201;51.148;13.738;2023-07-31T11:48:25;20.70;99.90
25250;DHT22;13201;51.148;13.738;2023-07-31T11:50:53;20.90;99.90
25250;DHT22;13201;51.148;13.738;2023-07-31T11:54:02;21.00;99.90
25250;DHT22;13201;51.148;13.738;2023-07-31T11:56:21;21.20;99.90
25250;DHT22;13201;51.148;13.738;2023-07-31T11:58:55;21.40;99.90
25250;DHT22;13201;51.148;13.738;2023-07-31T12:01:22;21.60;99.90
25250;DHT22;13201;51.148;13.738;2023-07-31T12:03:50;21.70;99.90
25250;DHT22;13201;51.148;13.738;2023-07-31T12:06:16;21.80;99.90
25250;DHT22;13201;51.148;13.738;2023-07-31T12:08:41;22.00;99.90
25250;DHT22;13201;51.148;13.738;2023-07-31T12:11:09;22.40;99.90
25250;DHT22;13201;51.148;13.738;2023-07-31T12:13:35;22.70;99.90
25250;DHT22;13201;51.148;13.738;2023-07-31T12:16:02;23.20;99.90
25250;DHT22;13201;51.148;13.738;2023-07-31T12:18:38;23.70;99.90
25250;DHT22;13201;51.148;13.738;2023-07-31T12:21:06;23.70;99.90
25250;DHT22;13201;51.148;13.738;2023-07-31T12:23:34;23.60;99.90
25250;DHT22;13201;51.148;13.738;2023-07-31T12:26:09;24.00;99.90
25250;DHT22;13201;51.148;13.738;2023-07-31T12:28:43;24.10;99.90
25250;DHT22;13201;51.148;13.738;2023-07-31T12:31:10;23.80;99.90
25250;DHT22;13201;51.148;13.738;2023-07-31T12:33:37;23.30;99.90
25250;DHT22;13201;51.148;13.738;2023-07-31T12:36:07;22.90;99.90
25250;DHT22;13201;51.148;13.738;2023-07-31T12:38:33;22.70;99.90
25250;DHT22;13201;51.148;13.738;2023-07-31T12:40:58;22.80;99.90
25250;DHT22;13201;51.148;13.738;2023-07-31T12:43:24;22.90;99.90
25250;DHT22;13201;51.148;13.738;2023-07-31T12:45:50;23.20;99.90
25250;DHT22;13201;51.148;13.738;2023-07-31T12:48:16;23.00;99.90
25250;DHT22;13201;51.148;13.738;2023-07-31T12:50:42;22.90;99.90
25250;DHT22;13201;51.148;13.738;2023-07-31T12:53:07;22.90;99.90
25250;DHT22;13201;51.148;13.738;2023-07-31T12:55:33;22.90;99.90
25250;DHT22;13201;51.148;13.738;2023-07-31T12:58:00;23.00;99.90
25250;DHT22;13201;51.148;13.738;2023-07-31T13:00:26;23.10;99.90
25250;DHT22;13201;51.148;13.738;2023-07-31T13:02:52;23.00;99.90
25250;DHT22;13201;51.148;13.738;2023-07-31T13:05:18;23.00;99.90
25250;DHT22;13201;51.148;13.738;2023-07-31T13:07:48;23.00;99.90
25250;DHT22;13201;51.148;13.738;2023-07-31T13:10:14;23.00;99.90
25250;DHT22;13201;51.148;13.738;2023-07-31T13:12:40;23.40;99.90
25250;DHT22;13201;51.148;13.738;2023-07-31T13:15:06;23.10;99.90
25250;DHT22;13201;51.148;13.738;2023-07-31T13:17:32;23.00;99.90
25250;DHT22;13201;51.148;13.738;2023-07-31T13:19:58;23.10;99.90
25250;DHT22;13201;51.148;13.738;2023-07-31T13:22:25;23.00;99.90
25250;DHT22;13201;51.148;13.738;2023-07-31T13:24:51;22.90;99.90
25250;DHT22;13201;51.148;13.738;2023-07-31T13:27:16;22.80;99.90
25250;DHT22;13201;51.148;13.738;2023-07-31T13:29:45;22.80;99.90
25250;DHT22;13201;51.148;13.738;2023-07-31T13:32:11;23.00;99.90
25250;DHT22;13201;51.148;13.738;2023-07-31T13:34:37;23.00;99.90
25250;DHT22;13201;51.148;13.738;2023-07-31T13:37:03;23.20;99.90
25250;DHT22;13201;51.148;13.738;2023-07-31T13:39:31;23.10;99.90
25250;DHT22;13201;51.148;13.738;2023-07-31T13:41:57;23.20;99.90
25250;DHT22;13201;51.148;13.738;2023-07-31T13:44:23;23.40;99.90
25250;DHT22;13201;51.148;13.738;2023-07-31T13:46:49;23.50;99.90
25250;DHT22;13201;51.148;13.738;2023-07-31T13:49:14;23.60;99.90
25250;DHT22;13201;51.148;13.738;2023-07-31T13:51:40;23.70;99.90
25250;DHT22;13201;51.148;13.738;2023-07-31T13:54:06;23.90;99.90
25250;DHT22;13201;51.148;13.738;2023-07-31T13:56:34;23.90;99.90
25250;DHT22;13201;51.148;13.738;2023-07-31T13:59:00;23.70;99.90
25250;DHT22;13201;51.148;13.738;2023-07-31T14:01:26;23.60;99.90
25250;DHT22;13201;51.148;13.738;2023-07-31T14:03:52;23.50;99.90
25250;DHT22;13201;51.148;13.738;2023-07-31T14:06:19;23.50;99.90
25250;DHT22;13201;51.148;13.738;2023-07-31T14:08:44;23.40;99.90
25250;DHT22;13201;51.148;13.738;2023-07-31T14:11:10;23.60;99.90
25250;DHT22;13201;51.148;13.738;2023-07-31T14:13:36;23.70;99.90
25250;DHT22;13201;51.148;13.738;2023-07-31T14:16:01;23.60;99.90
25250;DHT22;13201;51.148;13.738;2023-07-31T14:18:27;23.90;99.90
25250;DHT22;13201;51.148;13.738;2023-07-31T14:20:52;23.90;99.90
25250;DHT22;13201;51.148;13.738;2023-07-31T14:23:18;23.80;99.90
25250;DHT22;13201;51.148;13.738;2023-07-31T14:25:45;23.70;99.90
25250;DHT22;13201;51.148;13.738;2023-07-31T14:28:11;23.70;99.90
25250;DHT22;13201;51.148;13.738;2023-07-31T14:30:37;23.70;99.90
25250;DHT22;13201;51.148;13.738;2023-07-31T14:33:02;23.70;99.90
25250;DHT22;13201;51.148;13.738;2023-07-31T14:35:28;23.90;99.90
25250;DHT22;13201;51.148;13.738;2023-07-31T14:37:54;23.90;99.90
25250;DHT22;13201;51.148;13.738;2023-07-31T14:40:20;24.50;99.90
25250;DHT22;13201;51.148;13.738;2023-07-31T14:42:45;24.30;99.90
25250;DHT22;13201;51.148;13.738;2023-07-31T14:45:11;24.00;99.90
25250;DHT22;13201;51.148;13.738;2023-07-31T14:47:37;24.40;99.90
25250;DHT22;13201;51.148;13.738;2023-07-31T14:50:04;24.60;99.90
25250;DHT22;13201;51.148;13.738;2023-07-31T14:52:29;24.90;99.90
25250;DHT22;13201;51.148;13.738;2023-07-31T14:54:55;25.30;99.90
25250;DHT22;13201;51.148;13.738;2023-07-31T14:57:21;25.30;99.90
25250;DHT22;13201;51.148;13.738;2023-07-31T14:59:47;24.80;99.90
25250;DHT22;13201;51.148;13.738;2023-07-31T15:02:15;24.40;99.90
25250;DHT22;13201;51.148;13.738;2023-07-31T15:04:41;24.10;99.90
25250;DHT22;13201;51.148;13.738;2023-07-31T15:07:07;24.30;99.90
25250;DHT22;13201;51.148;13.738;2023-07-31T15:09:33;24.60;99.90
25250;DHT22;13201;51.148;13.738;2023-07-31T15:11:58;24.40;99.90
25250;DHT22;13201;51.148;13.738;2023-07-31T15:14:24;24.40;99.90
25250;DHT22;13201;51.148;13.738;2023-07-31T15:16:50;24.20;99.90
25250;DHT22;13201;51.148;13.738;2023-07-31T15:19:16;24.20;99.90
25250;DHT22;13201;51.148;13.738;2023-07-31T15:21:42;24.10;99.90
25250;DHT22;13201;51.148;13.738;2023-07-31T15:24:08;23.90;99.90
25250;DHT22;13201;51.148;13.738;2023-07-31T15:26:33;23.90;99.90
25250;DHT22;13201;51.148;13.738;2023-07-31T15:29:04;23.60;99.90
25250;DHT22;13201;51.148;13.738;2023-07-31T15:31:43;23.60;99.90
25250;DHT22;13201;51.148;13.738;2023-07-31T15:34:09;23.50;99.90
25250;DHT22;13201;51.148;13.738;2023-07-31T15:36:34;24.00;99.90
25250;DHT22;13201;51.148;13.738;2023-07-31T15:39:00;24.10;99.90